createdAt,value
2019-06-20T00:00:15.270Z,100080.91
2019-06-20T00:02:43.710Z,100072.81
2019-06-20T00:05:12.417Z,100045.63
2019-06-20T00:07:40.877Z,100043.77
2019-06-20T00:10:09.467Z,100034.00
2019-06-20T00:12:37.997Z,100024.36
2019-06-20T00:15:08.053Z,100001.47
2019-06-20T00:17:36.627Z,99979.81
2019-06-20T00:20:05.724Z,99963.97
2019-06-20T00:22:34.145Z,99924.36
2019-06-20T00:25:03.092Z,99868.20
2019-06-20T00:27:31.746Z,99880.80
2019-06-20T00:30:00.168Z,99905.66
2019-06-20T00:32:28.681Z,99895.98
2019-06-20T00:34:57.220Z,99892.31
2019-06-20T00:37:25.775Z,99896.98
2019-06-20T00:39:54.341Z,99942.81
2019-06-20T00:42:22.775Z,99947.04
2019-06-20T00:44:51.316Z,99973.19
2019-06-20T00:47:19.835Z,99975.53
2019-06-20T00:49:48.355Z,99982.80
2019-06-20T00:52:17.095Z,99983.33
2019-06-20T00:54:45.569Z,99985.92
2019-06-20T00:57:14.086Z,99996.40
2019-06-20T00:59:42.696Z,100016.59
2019-06-20T01:02:12.315Z,100023.92
2019-06-20T01:04:40.849Z,100028.91
2019-06-20T01:07:09.565Z,100019.81
2019-06-20T01:09:38.012Z,100020.28
2019-06-20T01:12:06.469Z,100016.49
2019-06-20T01:14:34.923Z,100016.98
2019-06-20T01:17:03.607Z,100016.86
2019-06-20T01:19:32.040Z,100020.25
2019-06-20T01:22:00.485Z,100023.44
2019-06-20T01:24:29.058Z,100018.88
2019-06-20T01:26:57.523Z,100022.50
2019-06-20T01:29:25.974Z,100020.77
2019-06-20T01:31:54.511Z,100017.27
2019-06-20T01:34:23.041Z,100024.72
2019-06-20T01:36:51.609Z,100018.88
2019-06-20T01:39:20.187Z,100014.50
2019-06-20T01:41:48.805Z,100010.84
2019-06-20T01:44:17.228Z,100017.75
2019-06-20T01:46:45.660Z,100024.91
2019-06-20T01:49:14.105Z,100021.57
2019-06-20T01:51:42.554Z,100030.47
2019-06-20T01:54:11.055Z,100035.02
2019-06-20T01:56:39.526Z,100038.96
2019-06-20T01:59:08.116Z,100037.16
2019-06-20T02:01:36.702Z,100038.52
2019-06-20T02:04:05.583Z,100036.70
2019-06-20T02:06:34.054Z,100038.06
2019-06-20T02:09:02.472Z,100044.32
2019-06-20T02:11:30.957Z,100047.67
2019-06-20T02:14:07.384Z,100051.59
2019-06-20T02:16:29.513Z,100051.27
2019-06-20T02:18:58.025Z,100043.02
2019-06-20T02:21:26.749Z,100044.20
2019-06-20T02:23:55.271Z,100038.91
2019-06-20T02:26:23.962Z,100038.06
2019-06-20T02:28:52.389Z,100042.41
2019-06-20T02:31:20.906Z,100042.97
2019-06-20T02:33:49.333Z,100054.54
2019-06-20T02:36:17.809Z,100057.41
2019-06-20T02:38:46.239Z,100058.63
2019-06-20T02:41:14.925Z,100053.65
2019-06-20T02:43:43.397Z,100054.20
2019-06-20T02:46:12.012Z,100058.61
2019-06-20T02:48:40.445Z,100058.17
2019-06-20T02:51:08.939Z,100064.02
2019-06-20T02:53:37.631Z,100058.80
2019-06-20T02:56:06.209Z,100073.45
2019-06-20T02:58:34.675Z,100067.34
2019-06-20T03:01:03.224Z,100071.98
2019-06-20T03:03:31.645Z,100068.56
2019-06-20T03:06:00.065Z,100073.86
2019-06-20T03:08:29.432Z,100081.14
2019-06-20T03:10:59.179Z,100086.16
2019-06-20T03:13:27.762Z,100101.94
2019-06-20T03:15:56.314Z,100101.59
2019-06-20T03:18:24.741Z,100106.86
2019-06-20T03:20:53.210Z,100112.03
2019-06-20T03:23:21.685Z,100111.64
2019-06-20T03:25:50.209Z,100118.07
2019-06-20T03:28:18.777Z,100119.92
2019-06-20T03:30:47.281Z,100120.57
2019-06-20T03:33:15.868Z,100117.67
2019-06-20T03:35:44.481Z,100126.89
2019-06-20T03:38:13.197Z,100124.45
2019-06-20T03:40:41.605Z,100128.08
2019-06-20T03:43:10.088Z,100133.81
2019-06-20T03:45:38.618Z,100133.15
2019-06-20T03:48:07.122Z,100141.13
2019-06-20T03:50:35.734Z,100142.88
2019-06-20T03:53:04.139Z,100141.84
2019-06-20T03:55:33.222Z,100147.16
2019-06-20T03:58:02.241Z,100144.12
2019-06-20T04:00:33.696Z,100150.91
2019-06-20T04:03:02.582Z,100141.43
2019-06-20T04:05:31.257Z,100140.30
2019-06-20T04:07:59.707Z,100144.23
2019-06-20T04:10:28.292Z,100141.13
2019-06-20T04:12:56.797Z,100149.36
2019-06-20T04:15:25.464Z,100145.39
2019-06-20T04:17:53.900Z,100148.70
2019-06-20T04:20:22.325Z,100155.86
2019-06-20T04:22:52.282Z,100160.16
2019-06-20T04:25:20.763Z,100166.46
2019-06-20T04:27:49.221Z,100163.95
2019-06-20T04:30:17.782Z,100164.20
2019-06-20T04:32:46.222Z,100162.52
2019-06-20T04:35:14.820Z,100160.05
2019-06-20T04:37:43.512Z,100168.11
2019-06-20T04:40:12.368Z,100161.73
2019-06-20T04:42:40.787Z,100167.77
2019-06-20T04:45:13.911Z,100170.16
2019-06-20T04:47:43.909Z,100164.34
2019-06-20T04:50:12.315Z,100162.47
2019-06-20T04:52:40.757Z,100161.23
2019-06-20T04:55:09.422Z,100160.81
2019-06-20T04:57:37.911Z,100161.92
2019-06-20T05:00:08.165Z,100169.83
2019-06-20T05:02:36.669Z,100173.35
2019-06-20T05:05:08.677Z,100176.92
2019-06-20T05:07:37.082Z,100171.70
2019-06-20T05:10:08.653Z,100163.55
2019-06-20T05:12:37.068Z,100163.61
2019-06-20T05:15:06.791Z,100166.52
2019-06-20T05:17:35.194Z,100166.73
2019-06-20T05:20:05.249Z,100162.70
2019-06-20T05:22:33.779Z,100162.30
2019-06-20T05:25:02.215Z,100160.28
2019-06-20T05:27:30.670Z,100166.75
2019-06-20T05:29:59.228Z,100165.95
2019-06-20T05:32:27.642Z,100160.71
2019-06-20T05:34:56.118Z,100167.34
2019-06-20T05:37:24.556Z,100165.09
2019-06-20T05:39:52.973Z,100162.52
2019-06-20T05:42:21.416Z,100174.17
2019-06-20T05:44:49.888Z,100170.35
2019-06-20T05:47:18.522Z,100170.30
2019-06-20T05:49:47.048Z,100175.02
2019-06-20T05:52:15.642Z,100173.91
2019-06-20T05:54:44.097Z,100178.44
2019-06-20T05:57:12.520Z,100175.16
2019-06-20T05:59:40.956Z,100170.64
2019-06-20T06:02:09.367Z,100169.05
2019-06-20T06:04:37.837Z,100176.22
2019-06-20T06:07:06.344Z,100172.57
2019-06-20T06:09:34.770Z,100171.83
2019-06-20T06:12:03.206Z,100170.95
2019-06-20T06:14:31.696Z,100180.33
2019-06-20T06:17:00.058Z,100174.90
2019-06-20T06:19:28.474Z,100184.52
2019-06-20T06:21:56.915Z,100180.19
2019-06-20T06:24:25.368Z,100176.72
2019-06-20T06:26:53.826Z,100181.94
2019-06-20T06:29:22.361Z,100185.58
2019-06-20T06:31:50.831Z,100184.06
2019-06-20T06:34:22.142Z,100179.92
2019-06-20T06:36:50.762Z,100193.52
2019-06-20T06:39:19.344Z,100190.41
2019-06-20T06:41:47.764Z,100195.48
2019-06-20T06:44:16.231Z,100196.02
2019-06-20T06:46:53.158Z,100203.48
2019-06-20T06:49:14.857Z,100200.61
2019-06-20T06:51:43.432Z,100201.72
2019-06-20T06:54:11.841Z,100200.61
2019-06-20T06:56:40.368Z,100202.97
2019-06-20T06:59:08.789Z,100201.61
2019-06-20T07:01:37.244Z,100204.93
2019-06-20T07:04:05.752Z,100204.77
2019-06-20T07:06:34.173Z,100204.83
2019-06-20T07:09:03.034Z,100202.14
2019-06-20T07:11:31.460Z,100208.47
2019-06-20T07:14:05.465Z,100208.66
2019-06-20T07:16:34.030Z,100201.59
2019-06-20T07:19:02.497Z,100206.55
2019-06-20T07:21:30.938Z,100202.23
2019-06-20T07:23:59.387Z,100206.17
2019-06-20T07:26:27.821Z,100201.37
2019-06-20T07:28:56.300Z,100208.42
2019-06-20T07:31:24.921Z,100203.52
2019-06-20T07:33:53.434Z,100209.16
2019-06-20T07:36:22.142Z,100211.78
2019-06-20T07:38:50.783Z,100209.98
2019-06-20T07:41:19.224Z,100219.09
2019-06-20T07:43:47.634Z,100214.75
2019-06-20T07:46:16.086Z,100214.00
2019-06-20T07:48:44.563Z,100208.59
2019-06-20T07:51:13.285Z,100217.98
2019-06-20T07:53:41.791Z,100209.91
2019-06-20T07:56:10.351Z,100213.14
2019-06-20T07:58:38.857Z,100209.64
2019-06-20T08:01:07.419Z,100211.64
2019-06-20T08:03:35.972Z,100211.52
2019-06-20T08:06:04.646Z,100217.56
2019-06-20T08:08:33.052Z,100203.75
2019-06-20T08:11:01.492Z,100208.75
2019-06-20T08:13:29.942Z,100220.08
2019-06-20T08:15:58.440Z,100196.81
2019-06-20T08:18:26.903Z,100215.75
2019-06-20T08:20:58.561Z,100198.86
2019-06-20T08:23:27.118Z,100219.14
2019-06-20T08:25:57.061Z,100219.14
2019-06-20T08:28:25.834Z,100210.77
2019-06-20T08:30:54.266Z,100212.12
2019-06-20T08:33:22.759Z,100209.52
2019-06-20T08:35:51.269Z,100210.53
2019-06-20T08:38:19.795Z,100201.88
2019-06-20T08:40:48.293Z,100201.98
2019-06-20T08:43:16.713Z,100182.39
2019-06-20T08:45:45.465Z,100182.39
2019-06-20T08:48:13.922Z,100198.19
2019-06-20T08:50:42.865Z,100203.37
2019-06-20T08:53:11.309Z,100202.64
2019-06-20T08:55:39.811Z,100199.24
2019-06-20T08:58:08.364Z,100193.18
2019-06-20T09:00:38.011Z,100189.72
2019-06-20T09:03:06.782Z,100193.30
2019-06-20T09:05:35.590Z,100192.03
2019-06-20T09:08:05.718Z,100186.64
2019-06-20T09:10:37.217Z,100174.27
2019-06-20T09:13:06.197Z,100181.68
2019-06-20T09:15:34.896Z,100181.43
2019-06-20T09:18:03.279Z,100180.88
2019-06-20T09:20:31.964Z,100190.63
2019-06-20T09:23:01.091Z,100190.71
2019-06-20T09:25:29.744Z,100186.09
2019-06-20T09:28:00.405Z,100180.59
2019-06-20T09:30:29.278Z,100179.61
2019-06-20T09:32:57.913Z,100181.12
2019-06-20T09:35:26.545Z,100184.33
2019-06-20T09:37:55.237Z,100180.85
2019-06-20T09:40:24.046Z,100175.50
2019-06-20T09:42:52.953Z,100181.23
2019-06-20T09:45:21.926Z,100191.23
2019-06-20T09:47:52.052Z,100193.63
2019-06-20T09:50:21.433Z,100188.59
2019-06-20T09:52:51.371Z,100192.05
2019-06-20T09:55:20.060Z,100192.23
2019-06-20T09:57:49.105Z,100188.97
2019-06-20T10:00:21.515Z,100185.41
2019-06-20T10:02:50.655Z,100202.68
2019-06-20T10:05:20.543Z,100200.71
2019-06-20T10:07:50.315Z,100194.36
2019-06-20T10:10:19.465Z,100205.88
2019-06-20T10:12:48.057Z,100218.70
2019-06-20T10:15:26.796Z,100209.60
2019-06-20T10:17:55.363Z,100202.61
2019-06-20T10:20:24.423Z,100204.80
2019-06-20T10:22:53.396Z,100208.03
2019-06-20T10:25:22.346Z,100202.69
2019-06-20T10:27:51.426Z,100209.61
2019-06-20T10:30:21.954Z,100214.00
2019-06-20T10:32:51.057Z,100234.06
2019-06-20T10:35:20.252Z,100261.99
2019-06-20T10:37:52.766Z,100284.20
2019-06-20T10:40:21.663Z,100244.64
2019-06-20T10:43:04.488Z,100247.35
2019-06-20T10:45:40.284Z,100237.74
2019-06-20T10:48:22.499Z,100233.06
2019-06-20T10:51:03.494Z,100235.89
2019-06-20T10:53:36.159Z,100230.06
2019-06-20T10:56:04.895Z,100223.45
2019-06-20T10:58:51.774Z,100205.49
2019-06-20T11:01:20.181Z,100205.49
2019-06-20T11:03:49.874Z,100223.80
2019-06-20T11:06:18.481Z,100225.94
2019-06-20T11:08:47.772Z,100229.39
2019-06-20T11:11:16.227Z,100215.00
2019-06-20T11:13:44.623Z,100220.13
2019-06-20T11:16:13.179Z,100220.91
2019-06-20T11:18:41.660Z,100221.02
2019-06-20T11:21:10.177Z,100214.24
2019-06-20T11:23:39.395Z,100207.94
2019-06-20T11:26:08.202Z,100214.30
2019-06-20T11:28:38.231Z,100211.58
2019-06-20T11:31:06.806Z,100214.69
2019-06-20T11:33:36.570Z,100197.45
2019-06-20T11:36:05.539Z,100197.45
2019-06-20T11:38:33.964Z,100222.20
2019-06-20T11:41:02.448Z,100211.22
2019-06-20T11:43:30.860Z,100203.91
2019-06-20T11:45:59.263Z,100182.26
2019-06-20T11:48:27.713Z,100202.50
2019-06-20T11:50:56.153Z,100197.98
2019-06-20T11:53:24.579Z,100188.20
2019-06-20T11:55:53.035Z,100188.20
2019-06-20T11:58:23.511Z,100176.92
2019-06-20T12:01:03.197Z,100180.48
2019-06-20T12:03:21.852Z,100185.00
2019-06-20T12:05:50.317Z,100180.14
2019-06-20T12:08:18.734Z,100175.96
2019-06-20T12:10:47.375Z,100163.03
2019-06-20T12:13:15.798Z,100162.24
2019-06-20T12:15:44.452Z,100168.14
2019-06-20T12:18:12.957Z,100164.22
2019-06-20T12:20:42.778Z,100165.57
2019-06-20T12:23:11.442Z,100166.84
2019-06-20T12:25:41.033Z,100162.67
2019-06-20T12:28:10.223Z,100167.83
2019-06-20T12:30:40.185Z,100170.69
2019-06-20T12:33:09.995Z,100166.11
2019-06-20T12:35:39.517Z,100152.91
2019-06-20T12:38:08.717Z,100146.94
2019-06-20T12:40:39.119Z,100149.37
2019-06-20T12:43:07.306Z,100139.08
2019-06-20T12:45:35.717Z,100141.38
2019-06-20T12:48:04.247Z,100142.77
2019-06-20T12:50:32.670Z,100136.13
2019-06-20T12:53:01.081Z,100139.77
2019-06-20T12:55:29.746Z,100142.23
2019-06-20T12:57:58.183Z,100143.58
2019-06-20T13:00:28.735Z,100141.47
2019-06-20T13:02:57.365Z,100133.54
2019-06-20T13:05:26.401Z,100127.93
2019-06-20T13:07:54.895Z,100128.13
2019-06-20T13:10:23.833Z,100129.39
2019-06-20T13:12:52.433Z,100126.59
2019-06-20T13:15:21.283Z,100120.18
2019-06-20T13:17:49.917Z,100121.16
2019-06-20T13:20:18.837Z,100108.96
2019-06-20T13:22:49.367Z,100116.95
2019-06-20T13:25:17.610Z,100112.97
2019-06-20T13:27:46.103Z,100115.03
2019-06-20T13:30:15.915Z,100126.31
2019-06-20T13:32:45.431Z,100123.05
2019-06-20T13:35:14.919Z,100114.24
2019-06-20T13:37:43.909Z,100121.97
2019-06-20T13:40:14.029Z,100116.14
2019-06-20T13:42:44.073Z,100119.23
2019-06-20T13:45:18.473Z,100118.41
2019-06-20T13:47:47.828Z,100119.41
2019-06-20T13:50:16.706Z,100110.36
2019-06-20T13:52:46.822Z,100116.56
2019-06-20T13:55:15.567Z,100114.32
2019-06-20T13:57:45.277Z,100118.03
2019-06-20T14:00:15.403Z,100109.86
2019-06-20T14:02:45.395Z,100112.56
2019-06-20T14:05:15.047Z,100105.14
2019-06-20T14:07:50.540Z,100115.77
2019-06-20T14:10:14.153Z,100125.59
2019-06-20T14:12:43.141Z,100123.34
2019-06-20T14:15:13.440Z,100134.12
2019-06-20T14:17:43.187Z,100142.05
2019-06-20T14:20:13.539Z,100130.41
2019-06-20T14:22:42.914Z,100130.41
2019-06-20T14:25:11.595Z,100137.78
2019-06-20T14:27:40.014Z,100123.66
2019-06-20T14:30:09.456Z,100129.64
2019-06-20T14:32:37.895Z,100129.64
2019-06-20T14:35:07.392Z,100124.94
2019-06-20T14:37:35.886Z,100146.48
2019-06-20T14:40:06.854Z,100121.92
2019-06-20T14:42:35.266Z,100121.92
2019-06-20T14:45:05.864Z,100146.86
2019-06-20T14:47:34.572Z,100139.80
2019-06-20T14:50:03.038Z,100124.63
2019-06-20T14:52:31.468Z,100103.28
2019-06-20T14:54:59.893Z,100115.17
2019-06-20T14:57:28.308Z,100115.05
2019-06-20T14:59:56.738Z,100114.58
2019-06-20T15:02:37.628Z,100104.19
2019-06-20T15:04:55.288Z,100119.09
2019-06-20T15:07:23.743Z,100129.13
2019-06-20T15:09:53.236Z,100130.74
2019-06-20T15:12:21.807Z,100136.02
2019-06-20T15:14:51.436Z,100138.33
2019-06-20T15:17:20.028Z,100143.91
2019-06-20T15:19:49.437Z,100144.21
2019-06-20T15:22:17.856Z,100143.30
2019-06-20T15:24:48.505Z,100135.06
2019-06-20T15:27:16.480Z,100139.42
2019-06-20T15:29:47.014Z,100145.75
2019-06-20T15:32:15.733Z,100155.34
2019-06-20T15:34:47.532Z,100145.34
2019-06-20T15:37:15.528Z,100149.84
2019-06-20T15:39:44.532Z,100140.65
2019-06-20T15:42:13.627Z,100146.36
2019-06-20T15:44:42.288Z,100144.84
2019-06-20T15:47:12.395Z,100148.52
2019-06-20T15:49:43.518Z,100150.41
2019-06-20T15:52:13.614Z,100148.28
2019-06-20T15:54:43.582Z,100154.41
2019-06-20T15:57:13.647Z,100154.11
2019-06-20T15:59:43.423Z,100158.91
2019-06-20T16:02:13.156Z,100155.67
2019-06-20T16:04:43.301Z,100149.33
2019-06-20T16:07:13.134Z,100151.23
2019-06-20T16:09:43.385Z,100158.01
2019-06-20T16:12:13.384Z,100162.87
2019-06-20T16:14:43.142Z,100159.82
2019-06-20T16:17:12.981Z,100160.27
2019-06-20T16:19:42.876Z,100158.99
2019-06-20T16:22:12.830Z,100152.52
2019-06-20T16:24:42.840Z,100151.11
2019-06-20T16:27:12.740Z,100147.77
2019-06-20T16:29:43.029Z,100151.48
2019-06-20T16:32:12.884Z,100149.59
2019-06-20T16:34:41.338Z,100153.47
2019-06-20T16:37:10.705Z,100151.59
2019-06-20T16:39:39.218Z,100146.64
2019-06-20T16:42:07.647Z,100141.42
2019-06-20T16:44:36.103Z,100137.11
2019-06-20T16:47:04.566Z,100141.83
2019-06-20T16:49:32.978Z,100146.03
2019-06-20T16:52:01.570Z,100144.46
2019-06-20T16:54:30.120Z,100143.93
2019-06-20T16:56:58.534Z,100140.69
2019-06-20T16:59:27.076Z,100143.56
2019-06-20T17:01:55.519Z,100141.38
2019-06-20T17:04:24.031Z,100144.09
2019-06-20T17:06:52.576Z,100145.21
2019-06-20T17:09:21.020Z,100138.97
2019-06-20T17:11:49.468Z,100140.33
2019-06-20T17:14:17.909Z,100154.41
2019-06-20T17:16:46.394Z,100157.64
2019-06-20T17:19:15.747Z,100158.99
2019-06-20T17:21:47.309Z,100167.95
2019-06-20T17:24:15.764Z,100174.95
2019-06-20T17:26:44.275Z,100172.54
2019-06-20T17:29:12.747Z,100180.91
2019-06-20T17:31:41.186Z,100187.89
2019-06-20T17:34:09.632Z,100190.81
2019-06-20T17:36:39.690Z,100191.50
2019-06-20T17:39:08.565Z,100193.56
2019-06-20T17:41:54.188Z,100202.20
2019-06-20T17:44:09.535Z,100202.91
2019-06-20T17:46:39.460Z,100201.47
2019-06-20T17:49:07.921Z,100210.25
2019-06-20T17:51:36.403Z,100211.89
2019-06-20T17:54:04.900Z,100211.59
2019-06-20T17:56:33.390Z,100218.66
2019-06-20T17:59:11.658Z,100213.78
2019-06-20T18:01:40.115Z,100223.55
2019-06-20T18:04:13.591Z,100226.99
2019-06-20T18:06:38.875Z,100231.23
2019-06-20T18:09:07.720Z,100233.11
2019-06-20T18:11:36.172Z,100233.94
2019-06-20T18:14:05.093Z,100243.17
2019-06-20T18:16:33.570Z,100248.65
2019-06-20T18:19:01.994Z,100248.00
2019-06-20T18:21:30.494Z,100250.97
2019-06-20T18:23:58.985Z,100261.14
2019-06-20T18:26:27.435Z,100253.85
2019-06-20T18:28:55.928Z,100264.62
2019-06-20T18:31:24.375Z,100262.97
2019-06-20T18:33:52.855Z,100271.23
2019-06-20T18:36:21.222Z,100269.72
2019-06-20T18:38:49.735Z,100259.98
2019-06-20T18:41:18.192Z,100279.78
2019-06-20T18:43:46.600Z,100282.81
2019-06-20T18:46:15.061Z,100288.59
2019-06-20T18:48:43.507Z,100294.33
2019-06-20T18:51:11.926Z,100294.33
2019-06-20T18:53:40.477Z,100301.00
2019-06-20T18:56:09.012Z,100303.41
2019-06-20T18:58:37.450Z,100303.06
2019-06-20T19:01:06.080Z,100303.06
2019-06-20T19:03:37.723Z,100330.80
2019-06-20T19:06:06.174Z,100330.80
2019-06-20T19:08:34.616Z,100332.86
2019-06-20T19:11:04.306Z,100338.84
2019-06-20T19:13:32.958Z,100344.44
2019-06-20T19:16:01.413Z,100351.65
2019-06-20T19:18:29.799Z,100352.70
2019-06-20T19:20:58.235Z,100346.09
2019-06-20T19:23:26.648Z,100337.05
2019-06-20T19:25:55.074Z,100361.72
2019-06-20T19:28:23.522Z,100377.06
2019-06-20T19:30:52.584Z,100377.06
2019-06-20T19:33:21.114Z,100375.94
2019-06-20T19:35:49.526Z,100371.20
2019-06-20T19:38:17.957Z,100375.22
2019-06-20T19:40:48.610Z,100370.56
2019-06-20T19:43:17.242Z,100380.73
2019-06-20T19:45:45.898Z,100389.77
2019-06-20T19:48:15.028Z,100391.75
2019-06-20T19:50:43.718Z,100398.25
2019-06-20T19:53:13.163Z,100402.70
2019-06-20T19:55:43.376Z,100405.72
2019-06-20T19:58:12.053Z,100409.86
2019-06-20T20:00:40.487Z,100412.18
2019-06-20T20:03:09.012Z,100416.70
2019-06-20T20:05:37.590Z,100419.84
2019-06-20T20:08:06.365Z,100428.55
2019-06-20T20:10:43.025Z,100434.18
2019-06-20T20:13:14.495Z,100437.54
2019-06-20T20:15:41.945Z,100434.27
2019-06-20T20:18:13.793Z,100439.05
2019-06-20T20:20:43.066Z,100452.38
2019-06-20T20:23:11.625Z,100453.90
2019-06-20T20:25:40.213Z,100452.11
2019-06-20T20:28:10.203Z,100454.25
2019-06-20T20:30:38.612Z,100452.94
2019-06-20T20:33:07.074Z,100457.45
2019-06-20T20:35:36.124Z,100459.84
2019-06-20T20:38:04.775Z,100455.31
2019-06-20T20:40:33.253Z,100456.20
2019-06-20T20:43:01.717Z,100463.11
2019-06-20T20:45:30.168Z,100454.19
2019-06-20T20:47:58.600Z,100462.62
2019-06-20T20:50:27.054Z,100467.72
2019-06-20T20:52:55.589Z,100465.32
2019-06-20T20:55:24.130Z,100466.64
2019-06-20T20:57:52.597Z,100464.83
2019-06-20T21:00:45.466Z,100466.48
2019-06-20T21:03:14.104Z,100469.30
2019-06-20T21:05:51.576Z,100467.19
2019-06-20T21:08:12.688Z,100470.62
2019-06-20T21:10:41.169Z,100464.55
2019-06-20T21:13:09.583Z,100462.79
2019-06-20T21:15:38.018Z,100462.44
2019-06-20T21:18:06.704Z,100464.41
2019-06-20T21:20:35.142Z,100458.85
2019-06-20T21:23:03.552Z,100471.12
2019-06-20T21:25:32.412Z,100464.89
2019-06-20T21:28:01.000Z,100470.59
2019-06-20T21:30:29.522Z,100471.99
2019-06-20T21:32:57.944Z,100476.24
2019-06-20T21:35:26.444Z,100475.16
2019-06-20T21:37:55.107Z,100477.63
2019-06-20T21:40:23.596Z,100474.32
2019-06-20T21:42:52.061Z,100486.45
2019-06-20T21:45:20.681Z,100482.51
2019-06-20T21:47:49.112Z,100490.91
2019-06-20T21:50:17.789Z,100499.14
2019-06-20T21:52:46.231Z,100514.75
2019-06-20T21:55:15.168Z,100505.29
2019-06-20T21:57:43.618Z,100512.99
2019-06-20T22:00:31.980Z,100511.95
2019-06-20T22:03:00.589Z,100517.06
2019-06-20T22:05:29.005Z,100513.41
2019-06-20T22:07:57.442Z,100517.11
2019-06-20T22:10:25.941Z,100529.95
2019-06-20T22:12:54.462Z,100527.88
2019-06-20T22:15:22.890Z,100532.99
2019-06-20T22:17:51.407Z,100538.80
2019-06-20T22:20:21.344Z,100545.11
2019-06-20T22:22:49.808Z,100542.86
2019-06-20T22:25:19.961Z,100543.50
2019-06-20T22:27:48.500Z,100540.50
2019-06-20T22:30:19.334Z,100539.56
2019-06-20T22:32:55.039Z,100544.04
2019-06-20T22:35:23.550Z,100549.94
2019-06-20T22:37:51.955Z,100551.29
2019-06-20T22:40:20.444Z,100552.52
2019-06-20T22:42:48.873Z,100552.31
2019-06-20T22:45:17.646Z,100553.73
2019-06-20T22:47:53.065Z,100551.81
2019-06-20T22:50:24.944Z,100550.46
2019-06-20T22:52:57.239Z,100551.79
2019-06-20T22:55:27.590Z,100547.88
2019-06-20T22:57:56.939Z,100541.33
2019-06-20T23:00:25.825Z,100546.72
2019-06-20T23:02:54.237Z,100543.83
2019-06-20T23:05:22.808Z,100545.17
2019-06-20T23:07:51.201Z,100548.06
2019-06-20T23:10:19.751Z,100556.46
2019-06-20T23:12:53.160Z,100556.55
2019-06-20T23:15:25.433Z,100556.66
2019-06-20T23:17:53.940Z,100556.43
2019-06-20T23:20:22.654Z,100562.45
2019-06-20T23:22:51.149Z,100562.23
2019-06-20T23:25:19.841Z,100562.33
2019-06-20T23:27:48.258Z,100559.89
2019-06-20T23:30:18.810Z,100563.39
2019-06-20T23:32:48.761Z,100570.84
2019-06-20T23:35:17.218Z,100566.68
2019-06-20T23:37:45.651Z,100568.78
2019-06-20T23:40:14.559Z,100570.75
2019-06-20T23:42:43.025Z,100564.55
2019-06-20T23:45:16.569Z,100567.63
2019-06-20T23:47:44.962Z,100563.59
2019-06-20T23:50:20.637Z,100562.37
2019-06-20T23:53:06.815Z,100564.55
2019-06-20T23:55:35.310Z,100565.66
2019-06-20T23:58:03.786Z,100570.85
